Time;durP1;ratioP1;P1;durP2;ratioP2;P2;SDS_P1;SDS_P2;PMS_P1;PMS_P2;Temp;Humidity;BMP_temperature;BMP_pressure;BME280_temperature;BME280_humidity;BME280_pressure;Samples;Min_cycle;Max_cycle;Signal;HPM_P1;HPM_P2
2022/03/16 00:02:22;;;;;;;;;25.50;21.50;;;;;11.76;76.30;101733.81;4976507;28;45362;-51
2022/03/16 00:04:52;;;;;;;;;28.67;19.33;;;;;11.74;76.13;101728.59;4976248;28;45808;-46
2022/03/16 00:07:18;;;;;;;;;19.00;17.50;;;;;11.70;76.13;101722.66;4976171;28;45469;-46
2022/03/16 00:09:44;;;;;;;;;22.75;18.75;;;;;11.65;76.19;101716.03;4975955;28;45381;-49
2022/03/16 00:12:10;;;;;;;;;26.00;20.00;;;;;11.69;75.99;101733.47;4976460;28;45347;-49
2022/03/16 00:14:36;;;;;;;;;23.33;18.00;;;;;11.68;75.95;101729.97;4975960;28;46036;-46
2022/03/16 00:17:03;;;;;;;;;18.67;18.00;;;;;11.68;75.23;101727.28;4975963;28;45435;-47
2022/03/16 00:19:28;;;;;;;;;28.00;21.00;;;;;11.70;75.57;101724.50;4975856;28;45316;-47
2022/03/16 00:21:54;;;;;;;;;25.25;25.25;;;;;11.61;76.23;101703.94;4976260;28;45486;-51
2022/03/16 00:24:19;;;;;;;;;22.33;17.00;;;;;11.70;76.05;101729.81;4976015;28;45613;-46
2022/03/16 00:26:44;;;;;;;;;17.67;12.67;;;;;11.68;75.25;101721.97;4975955;28;45485;-43
2022/03/16 00:29:10;;;;;;;;;18.67;16.67;;;;;11.67;76.00;101720.28;4976174;28;45670;-43
2022/03/16 00:31:35;;;;;;;;;21.75;16.50;;;;;11.69;75.67;101728.97;4976294;28;45250;-41
2022/03/16 00:34:01;;;;;;;;;29.75;19.00;;;;;11.68;75.66;101726.47;4976934;28;45365;-42
2022/03/16 00:36:27;;;;;;;;;27.33;18.33;;;;;11.68;76.09;101726.47;4975907;28;45445;-48
2022/03/16 00:38:52;;;;;;;;;21.75;18.25;;;;;11.68;75.59;101726.47;4975662;28;45408;-45
2022/03/16 00:41:17;;;;;;;;;24.67;22.33;;;;;11.65;75.81;101714.22;4975995;28;45316;-42
2022/03/16 00:43:44;;;;;;;;;20.67;16.67;;;;;11.66;75.73;101715.91;4976927;28;46025;-42
2022/03/16 00:46:09;;;;;;;;;27.00;18.25;;;;;11.67;75.92;101717.63;4975747;28;45400;-50
2022/03/16 00:48:35;;;;;;;;;25.33;21.67;;;;;11.66;75.66;101710.56;4975966;28;46149;-42
2022/03/16 00:51:01;;;;;;;;;22.00;17.00;;;;;11.71;75.35;101715.50;4975910;28;45486;-46
2022/03/16 00:53:26;;;;;;;;;23.67;17.67;;;;;11.71;75.20;101712.84;4975569;28;47123;-43
2022/03/16 00:55:52;;;;;;;;;23.25;18.00;;;;;11.73;75.64;101705.59;4975539;28;45388;-49
2022/03/16 00:58:17;;;;;;;;;21.33;19.33;;;;;11.69;75.46;101699.66;4975629;28;45692;-47
2022/03/16 01:00:43;;;;;;;;;19.67;17.67;;;;;11.68;75.52;101705.97;4975951;28;45484;-46
2022/03/16 01:03:08;;;;;;;;;22.33;14.67;;;;;11.70;75.23;101698.69;4975354;28;47171;-49
2022/03/16 01:05:33;;;;;;;;;23.33;19.00;;;;;11.70;75.31;101697.84;4975656;28;45490;-45
2022/03/16 01:07:59;;;;;;;;;17.67;16.67;;;;;11.70;75.14;101701.34;4975550;28;45407;-44
2022/03/16 01:10:24;;;;;;;;;18.00;17.00;;;;;11.68;74.95;101694.47;4974441;28;45445;-42
2022/03/16 01:12:50;;;;;;;;;20.67;17.67;;;;;11.67;75.30;101692.75;4975284;28;46921;-47
2022/03/16 01:15:15;;;;;;;;;23.00;20.67;;;;;11.67;75.29;101687.44;4975412;28;45216;-45
2022/03/16 01:17:41;;;;;;;;;25.00;20.00;;;;;11.70;75.31;101688.00;4975484;28;45418;-50
2022/03/16 01:20:07;;;;;;;;;26.33;18.00;;;;;11.73;75.05;101684.25;4975445;28;45430;-50
2022/03/16 01:22:33;;;;;;;;;17.67;14.00;;;;;11.71;75.21;101679.06;4974645;28;45344;-42
2022/03/16 01:24:58;;;;;;;;;25.00;16.33;;;;;11.75;74.87;101679.63;4974976;28;45336;-48
2022/03/16 01:27:23;;;;;;;;;19.67;17.67;;;;;11.73;74.53;101674.44;4975341;28;45295;-46
2022/03/16 01:29:49;;;;;;;;;19.67;13.67;;;;;11.76;74.31;101675.16;4975464;28;45254;-44
2022/03/16 01:32:14;;;;;;;;;18.00;14.67;;;;;11.74;74.47;101672.59;4975169;28;46344;-46
2022/03/16 01:34:39;;;;;;;;;15.67;13.67;;;;;11.72;74.20;101663.91;4975153;28;45351;-44
2022/03/16 01:37:05;;;;;;;;;16.33;15.33;;;;;11.61;74.52;101643.50;4975308;28;45316;-49
2022/03/16 01:39:31;;;;;;;;;20.00;11.67;;;;;11.70;74.34;101661.34;4975168;28;45419;-47
2022/03/16 01:41:57;;;;;;;;;18.00;15.00;;;;;11.67;74.22;101660.78;4975149;28;45379;-43
2022/03/16 01:44:57;;;;;;;;;20.33;16.33;;;;;11.67;74.17;101656.31;4974805;28;45345;-41
2022/03/16 01:47:24;;;;;;;;;18.33;16.00;;;;;11.67;74.12;101656.31;5015270;28;45475;-43
2022/03/16 01:49:51;;;;;;;;;21.00;12.33;;;;;11.67;74.28;101656.31;5015358;28;45362;-45
2022/03/16 01:52:22;;;;;;;;;20.00;12.00;;;;;11.65;73.96;101657.41;5014911;28;45464;-44
2022/03/16 01:54:48;;;;;;;;;17.00;16.00;;;;;11.65;74.38;101663.59;5015030;28;45387;-43
2022/03/16 01:57:15;;;;;;;;;22.33;17.67;;;;;11.61;74.25;101667.47;5014874;28;45481;-42
2022/03/16 01:59:41;;;;;;;;;23.00;15.00;;;;;11.60;74.65;101665.81;5015160;28;45470;-43
2022/03/16 02:02:09;;;;;;;;;26.33;19.00;;;;;11.57;74.93;101668.72;5014647;28;46442;-42
2022/03/16 02:04:35;;;;;;;;;18.67;14.00;;;;;11.63;74.88;101670.00;5013758;28;45441;-42
2022/03/16 02:07:00;;;;;;;;;18.33;14.67;;;;;11.58;74.75;101662.41;5014983;28;45400;-43
2022/03/16 02:09:26;;;;;;;;;16.33;16.33;;;;;11.63;74.55;101668.22;5014597;28;45464;-44
2022/03/16 02:11:52;;;;;;;;;14.33;14.33;;;;;11.62;74.68;101665.66;5014881;28;46637;-45
2022/03/16 02:14:18;;;;;;;;;16.33;15.67;;;;;11.60;74.67;101664.97;5014595;28;45448;-44
2022/03/16 02:16:47;;;;;;;;;15.00;14.67;;;;;11.57;74.72;101667.88;5014759;28;45479;-43
2022/03/16 02:19:13;;;;;;;;;20.67;15.67;;;;;11.55;74.43;101665.34;5014961;28;45544;-42
2022/03/16 02:21:40;;;;;;;;;16.00;14.00;;;;;11.53;74.83;101667.28;5014091;28;46193;-42
2022/03/16 02:24:07;;;;;;;;;23.00;16.00;;;;;11.49;74.21;101668.53;4975385;28;45449;-41
2022/03/16 02:26:33;;;;;;;;;19.33;17.00;;;;;11.46;74.46;101659.00;4974488;28;45438;-43
2022/03/16 02:28:59;;;;;;;;;17.33;13.67;;;;;11.44;74.66;101660.09;4974564;28;45372;-44
2022/03/16 02:31:25;;;;;;;;;22.00;16.00;;;;;11.39;75.05;101652.47;4974123;28;45937;-43
2022/03/16 02:33:50;;;;;;;;;16.33;15.67;;;;;11.35;75.01;101650.22;4974326;28;45445;-43
2022/03/16 02:36:16;;;;;;;;;20.67;16.67;;;;;11.32;74.52;101645.97;4974642;28;45414;-43
2022/03/16 02:38:42;;;;;;;;;22.00;18.00;;;;;11.30;75.18;101650.59;4974723;28;45370;-42
2022/03/16 02:41:07;;;;;;;;;17.00;16.00;;;;;11.24;74.92;101643.94;4973948;28;46186;-42
2022/03/16 02:43:33;;;;;;;;;20.67;17.67;;;;;11.28;75.11;101643.69;4974218;28;45403;-42
2022/03/16 02:45:58;;;;;;;;;23.33;17.33;;;;;11.24;75.40;101635.13;4974210;28;45484;-44
2022/03/16 02:48:24;;;;;;;;;23.67;17.67;;;;;11.20;75.72;101636.34;4974555;28;45452;-44
2022/03/16 02:50:49;;;;;;;;;17.00;16.00;;;;;11.15;75.78;101638.56;4974230;28;45370;-43
2022/03/16 02:53:15;;;;;;;;;29.33;17.00;;;;;11.13;75.49;101641.38;4974005;28;45412;-43
2022/03/16 02:55:44;;;;;;;;;25.33;18.67;;;;;11.13;75.45;101641.38;4974203;28;45174;-43
2022/03/16 02:58:09;;;;;;;;;24.00;20.67;;;;;11.13;75.64;101638.69;4974467;28;45341;-42
2022/03/16 03:00:35;;;;;;;;;27.33;18.00;;;;;11.13;75.74;101637.84;4973504;28;47239;-43
2022/03/16 03:03:00;;;;;;;;;17.33;13.00;;;;;11.13;75.68;101625.38;4974137;28;45382;-43
2022/03/16 03:05:25;;;;;;;;;23.33;17.00;;;;;11.12;75.87;101636.97;4974174;28;45370;-46
2022/03/16 03:07:51;;;;;;;;;28.25;19.50;;;;;11.08;75.86;101638.25;4974240;28;45378;-45
2022/03/16 03:10:16;;;;;;;;;24.00;18.00;;;;;11.12;75.74;101642.31;4973601;28;45421;-43
2022/03/16 03:12:42;;;;;;;;;24.00;20.33;;;;;11.11;76.05;101639.78;4973713;28;45254;-42
2022/03/16 03:15:12;;;;;;;;;18.00;16.67;;;;;11.10;75.02;101632.78;4973819;28;45395;-42
2022/03/16 03:17:39;;;;;;;;;27.33;21.67;;;;;11.09;76.11;101639.94;4973990;28;45557;-46
2022/03/16 03:20:05;;;;;;;;;21.33;18.00;;;;;11.08;75.99;101640.03;4973281;28;46247;-42
2022/03/16 03:22:30;;;;;;;;;19.50;17.75;;;;;11.08;76.09;101634.72;4973587;28;45445;-42
2022/03/16 03:24:56;;;;;;;;;25.25;21.00;;;;;11.09;75.97;101634.59;4973590;28;45857;-44
2022/03/16 03:27:21;;;;;;;;;19.50;19.00;;;;;11.08;75.91;101637.38;4973867;28;45524;-44
2022/03/16 03:29:47;;;;;;;;;26.00;17.67;;;;;11.12;75.92;101638.81;4973405;28;45591;-43
2022/03/16 03:32:13;;;;;;;;;26.25;20.25;;;;;11.08;75.93;101632.91;4972114;28;45403;-43
2022/03/16 03:34:39;;;;;;;;;26.00;19.67;;;;;11.03;75.67;101632.44;4976771;28;45335;-41
2022/03/16 03:37:05;;;;;;;;;26.00;19.50;;;;;11.09;75.94;101639.09;4976838;28;45366;-42
2022/03/16 03:39:31;;;;;;;;;23.75;19.00;;;;;11.07;76.08;101639.19;4976299;28;46221;-42
2022/03/16 03:41:57;;;;;;;;;21.50;19.25;;;;;11.06;76.03;101650.81;4976221;28;45357;-41
2022/03/16 03:44:22;;;;;;;;;30.00;24.75;;;;;11.04;76.34;101650.13;4976373;28;45293;-47
2022/03/16 03:46:47;;;;;;;;;28.00;19.50;;;;;11.03;76.15;101642.25;4976118;28;45589;-44
2022/03/16 03:49:13;;;;;;;;;22.00;19.25;;;;;11.01;76.25;101645.03;4976318;28;46268;-50
2022/03/16 03:51:38;;;;;;;;;25.25;20.50;;;;;10.98;76.09;101638.16;4958758;28;45654;-48
2022/03/16 03:54:03;;;;;;;;;23.33;20.33;;;;;10.96;76.41;101645.44;4976453;28;45332;-49
2022/03/16 03:56:29;;;;;;;;;17.67;16.33;;;;;10.95;76.67;101645.53;4976374;28;45315;-49
2022/03/16 03:58:54;;;;;;;;;25.50;21.25;;;;;10.95;76.47;101645.53;4976242;28;45943;-49
2022/03/16 04:01:20;;;;;;;;;16.25;13.75;;;;;10.93;76.70;101645.69;4976043;28;45164;-46
2022/03/16 04:03:45;;;;;;;;;23.75;20.50;;;;;10.90;76.64;101645.91;4976280;28;45336;-48
2022/03/16 04:06:11;;;;;;;;;21.67;19.67;;;;;10.90;76.65;101637.09;4976631;28;45470;-47
2022/03/16 04:08:36;;;;;;;;;28.25;25.50;;;;;10.89;76.51;101633.59;4975763;28;47073;-42
2022/03/16 04:11:02;;;;;;;;;33.25;22.00;;;;;10.86;76.48;101636.50;4975693;28;45460;-49
2022/03/16 04:13:28;;;;;;;;;22.50;18.00;;;;;10.86;75.73;101630.34;4975847;28;45394;-50
2022/03/16 04:15:53;;;;;;;;;23.00;21.25;;;;;10.84;76.48;101627.81;4976274;28;45520;-50
2022/03/16 04:18:18;;;;;;;;;29.25;20.75;;;;;10.79;76.49;101619.38;4975820;28;47109;-48
2022/03/16 04:20:44;;;;;;;;;24.25;20.25;;;;;10.81;76.64;101620.06;4975942;28;45398;-44
2022/03/16 04:23:09;;;;;;;;;28.50;20.00;;;;;10.77;76.57;101609.81;4976131;28;45394;-47
2022/03/16 04:25:35;;;;;;;;;24.00;16.00;;;;;10.76;77.20;101610.78;4976039;28;45464;-48
2022/03/16 04:28:00;;;;;;;;;24.25;21.50;;;;;10.72;77.08;101604.88;4975834;28;46119;-46
2022/03/16 04:30:25;;;;;;;;;21.50;19.75;;;;;10.75;77.34;101601.97;4975835;28;45332;-43
2022/03/16 04:32:52;;;;;;;;;19.75;16.75;;;;;10.71;77.11;101601.38;4975934;28;45251;-48
2022/03/16 04:35:19;;;;;;;;;28.25;22.75;;;;;10.72;76.97;101605.69;4976094;28;45470;-47
2022/03/16 04:37:45;;;;;;;;;27.25;23.25;;;;;10.69;77.13;101605.94;4974414;28;46427;-47
2022/03/16 04:40:12;;;;;;;;;29.50;21.50;;;;;10.70;77.20;101601.47;4975633;28;45526;-47
2022/03/16 04:42:37;;;;;;;;;25.75;23.75;;;;;10.70;77.38;101602.34;4975758;28;45414;-49
2022/03/16 04:45:03;;;;;;;;;35.50;20.00;;;;;10.69;77.30;101599.78;4975604;28;45387;-47
2022/03/16 04:47:28;;;;;;;;;25.50;24.25;;;;;10.66;77.22;101594.72;4975641;28;46128;-46
2022/03/16 04:49:53;;;;;;;;;25.50;24.00;;;;;10.66;77.40;101603.56;4975635;28;45287;-46
2022/03/16 04:52:19;;;;;;;;;29.00;25.00;;;;;10.65;77.13;101599.19;4975948;28;45308;-49
2022/03/16 04:54:44;;;;;;;;;25.25;23.75;;;;;10.65;77.40;101599.19;4975714;28;45324;-40
2022/03/16 04:57:09;;;;;;;;;32.00;26.75;;;;;10.64;77.30;101607.31;4975450;28;45350;-45
2022/03/16 04:59:35;;;;;;;;;23.00;20.50;;;;;10.59;77.42;101615.66;4975455;28;45376;-51
2022/03/16 05:02:00;;;;;;;;;28.25;24.50;;;;;10.54;77.40;101607.22;4975863;28;45227;-48
2022/03/16 05:04:25;;;;;;;;;26.00;21.00;;;;;10.53;77.61;101610.84;4975873;28;45334;-42
2022/03/16 05:06:51;;;;;;;;;28.25;24.00;;;;;10.50;77.78;101608.44;4975562;28;46922;-49
2022/03/16 05:09:16;;;;;;;;;26.25;23.25;;;;;10.47;78.07;101604.22;4975417;28;45272;-47
2022/03/16 05:11:42;;;;;;;;;26.50;23.50;;;;;10.48;77.52;101602.38;4975465;28;45318;-48
2022/03/16 05:14:09;;;;;;;;;25.25;20.25;;;;;10.47;77.21;101596.22;4975697;28;45421;-48
2022/03/16 05:16:35;;;;;;;;;27.50;21.50;;;;;10.50;77.51;101603.13;4976445;28;46073;-48
2022/03/16 05:19:01;;;;;;;;;34.75;23.25;;;;;10.53;78.02;101599.34;4975316;28;45361;-47
2022/03/16 05:21:26;;;;;;;;;29.50;22.75;;;;;10.53;77.53;101594.03;4975142;28;45478;-42
2022/03/16 05:23:52;;;;;;;;;32.50;25.50;;;;;10.55;77.86;101586.78;4975719;28;45295;-41
2022/03/16 05:26:17;;;;;;;;;27.00;24.00;;;;;10.55;77.73;101592.94;4975195;28;45354;-46
2022/03/16 05:28:42;;;;;;;;;25.75;22.50;;;;;10.56;77.81;101594.63;4975279;28;45357;-47
2022/03/16 05:31:08;;;;;;;;;27.00;23.00;;;;;10.54;77.98;101604.56;4975395;28;45369;-48
2022/03/16 05:33:34;;;;;;;;;27.75;20.25;;;;;10.43;78.11;101593.94;4974043;28;45438;-47
2022/03/16 05:35:59;;;;;;;;;24.25;20.00;;;;;10.52;77.95;101613.63;4975223;28;46037;-47
2022/03/16 05:38:24;;;;;;;;;28.25;22.25;;;;;10.51;77.99;101618.09;4975021;28;45479;-43
2022/03/16 05:40:50;;;;;;;;;30.00;23.75;;;;;10.55;77.88;101624.03;4975226;28;45419;-45
2022/03/16 05:43:15;;;;;;;;;21.00;21.00;;;;;10.54;77.92;101622.34;4974994;28;45376;-44
2022/03/16 05:45:41;;;;;;;;;31.00;21.50;;;;;10.49;77.74;101626.22;4974701;28;46345;-48
2022/03/16 05:48:06;;;;;;;;;26.75;22.50;;;;;10.49;78.14;101628.88;4975135;28;45451;-49
2022/03/16 05:50:32;;;;;;;;;30.00;24.75;;;;;10.50;77.94;101619.09;4974994;28;45260;-43
2022/03/16 05:52:59;;;;;;;;;36.75;26.75;;;;;10.51;77.90;101617.28;4975268;28;45440;-44
2022/03/16 05:55:25;;;;;;;;;27.75;26.00;;;;;10.48;77.55;101613.88;4973362;28;46526;-43
2022/03/16 05:57:51;;;;;;;;;36.75;24.25;;;;;10.55;78.17;101616.06;4974636;28;45308;-47
2022/03/16 06:00:18;;;;;;;;;23.25;20.25;;;;;10.55;77.88;101624.88;4974443;28;45410;-50
2022/03/16 06:02:44;;;;;;;;;33.75;28.00;;;;;10.55;78.16;101618.72;4975006;28;45322;-44
2022/03/16 06:05:11;;;;;;;;;30.25;24.75;;;;;10.52;78.11;101613.63;4974648;28;47143;-43
2022/03/16 06:07:38;;;;;;;;;33.50;24.75;;;;;10.53;77.95;101624.13;4974521;28;45246;-43
2022/03/16 06:10:07;;;;;;;;;30.25;21.50;;;;;10.57;77.94;101612.28;4974901;28;45284;-42
2022/03/16 06:12:32;;;;;;;;;30.25;26.50;;;;;10.60;77.64;101617.34;4974658;28;45449;-46
2022/03/16 06:14:58;;;;;;;;;28.75;27.25;;;;;10.60;77.38;101627.16;4974555;28;45410;-45
2022/03/16 06:17:23;;;;;;;;;33.25;25.75;;;;;10.62;77.57;101625.19;4974547;28;45403;-45
2022/03/16 06:19:49;;;;;;;;;29.00;26.50;;;;;10.48;77.58;101602.38;4974764;28;45375;-46
2022/03/16 06:22:14;;;;;;;;;39.75;31.50;;;;;10.63;77.73;101621.59;4974811;28;45412;-42
2022/03/16 06:24:40;;;;;;;;;32.50;27.25;;;;;10.63;77.34;101606.47;4974441;28;45454;-43
2022/03/16 06:27:05;;;;;;;;;28.50;22.00;;;;;10.66;77.07;101619.53;4974374;28;45391;-49
2022/03/16 06:29:30;;;;;;;;;30.00;24.25;;;;;10.65;77.19;101620.47;4974535;28;45729;-43
2022/03/16 06:31:56;;;;;;;;;33.50;28.50;;;;;10.67;77.43;101634.53;4973537;28;45550;-46
2022/03/16 06:34:21;;;;;;;;;28.50;21.25;;;;;10.67;77.50;101639.84;4974328;28;45381;-43
2022/03/16 06:36:46;;;;;;;;;30.50;27.00;;;;;10.66;77.30;101638.16;4974209;28;45366;-43
2022/03/16 06:39:13;;;;;;;;;32.00;27.00;;;;;10.64;77.50;101631.25;4974569;28;45539;-45
2022/03/16 06:41:38;;;;;;;;;35.25;29.00;;;;;10.67;77.68;101633.69;4974672;28;45307;-41
2022/03/16 06:44:04;;;;;;;;;36.50;29.00;;;;;10.71;77.58;101637.78;4972564;28;46258;-49
2022/03/16 06:46:30;;;;;;;;;35.50;26.75;;;;;10.67;77.00;101631.00;4974249;28;45509;-47
2022/03/16 06:48:55;;;;;;;;;27.00;23.00;;;;;10.73;77.38;101644.66;4974746;28;45348;-45
2022/03/16 06:51:22;;;;;;;;;31.25;25.25;;;;;10.75;77.52;101655.19;4974609;28;45555;-49
2022/03/16 06:53:48;;;;;;;;;31.00;25.25;;;;;10.72;76.97;101656.25;4974144;28;45309;-47
2022/03/16 06:56:13;;;;;;;;;32.75;26.25;;;;;10.72;77.46;101660.75;4974089;28;45427;-45
2022/03/16 06:58:38;;;;;;;;;30.25;26.50;;;;;10.72;77.28;101660.75;4974073;28;45273;-43
2022/03/16 07:01:04;;;;;;;;;32.50;25.50;;;;;10.70;77.20;101657.34;4974605;28;45334;-45
2022/03/16 07:03:29;;;;;;;;;33.75;28.50;;;;;10.74;77.10;101665.00;4973773;28;46190;-44
2022/03/16 07:05:55;;;;;;;;;41.25;31.00;;;;;10.69;77.06;101647.69;4974103;28;45304;-47
2022/03/16 07:08:20;;;;;;;;;39.50;29.75;;;;;10.82;76.95;101660.84;4975544;28;45331;-42
2022/03/16 07:10:46;;;;;;;;;35.25;32.00;;;;;10.82;76.80;101655.50;4977359;28;45353;-45
2022/03/16 07:13:12;;;;;;;;;37.50;32.25;;;;;10.83;77.37;101658.06;4976771;28;46026;-42
2022/03/16 07:15:40;;;;;;;;;50.50;32.50;;;;;10.84;76.93;101659.75;4975645;28;45306;-43
2022/03/16 07:18:05;;;;;;;;;31.75;26.50;;;;;10.83;76.99;101657.19;4976957;28;45435;-44
2022/03/16 07:20:32;;;;;;;;;35.00;30.50;;;;;10.85;76.80;101649.94;4977064;28;45392;-43
2022/03/16 07:23:18;;;;;;;;;34.00;32.00;;;;;10.87;76.85;101654.19;4976758;28;47458;-44
2022/03/16 07:25:46;;;;;;;;;30.50;26.75;;;;;10.88;77.17;101649.69;4976518;28;45210;-41
2022/03/16 07:28:12;;;;;;;;;41.25;29.25;;;;;10.88;76.81;101642.56;4976654;28;45390;-44
2022/03/16 07:30:39;;;;;;;;;33.25;32.50;;;;;10.96;76.82;101653.41;4976995;28;45342;-42
2022/03/16 07:33:06;;;;;;;;;40.00;31.75;;;;;11.00;76.69;101656.69;4976695;28;45981;-42
2022/03/16 07:35:32;;;;;;;;;35.25;33.00;;;;;11.05;76.65;101657.13;4976863;28;45490;-46
2022/03/16 07:38:01;;;;;;;;;36.75;29.75;;;;;11.07;76.55;101654.31;4976929;28;46230;-43
2022/03/16 07:40:27;;;;;;;;;33.50;26.75;;;;;11.11;76.54;101661.94;4976826;28;45428;-42
2022/03/16 07:42:52;;;;;;;;;41.25;31.50;;;;;11.02;76.09;101649.38;4976149;28;46217;-42
2022/03/16 07:45:19;;;;;;;;;36.25;32.75;;;;;11.14;75.95;101659.03;4976235;28;45383;-49
2022/03/16 07:47:46;;;;;;;;;41.75;31.25;;;;;11.16;75.94;101661.53;4976629;28;45300;-43
2022/03/16 07:50:12;;;;;;;;;47.50;32.50;;;;;11.15;75.87;101660.72;4976926;28;45238;-43
2022/03/16 07:52:38;;;;;;;;;41.25;32.75;;;;;11.09;75.82;101647.06;4976219;28;45473;-43
2022/03/16 07:55:04;;;;;;;;;34.25;29.50;;;;;11.08;76.08;101646.22;4976627;28;45422;-42
2022/03/16 07:57:29;;;;;;;;;37.50;33.25;;;;;11.17;75.90;101666.75;4976471;28;45264;-42
2022/03/16 07:59:56;;;;;;;;;43.25;34.25;;;;;11.17;75.78;101647.28;4976495;28;45537;-42
2022/03/16 08:02:22;;;;;;;;;34.75;28.00;;;;;11.19;75.78;101664.81;4976115;28;45446;-42
2022/03/16 08:04:47;;;;;;;;;37.00;30.00;;;;;11.20;75.60;101660.31;4976154;28;45489;-42
2022/03/16 08:07:12;;;;;;;;;33.75;30.75;;;;;11.18;75.83;101657.78;4976492;28;45418;-43
2022/03/16 08:09:38;;;;;;;;;34.50;29.75;;;;;11.19;75.79;101651.47;4976503;28;45431;-43
2022/03/16 08:12:04;;;;;;;;;32.00;28.25;;;;;11.26;75.25;101653.66;4976350;28;46496;-43
2022/03/16 08:14:29;;;;;;;;;36.00;30.50;;;;;11.24;75.45;101651.09;4974759;28;45355;-43
2022/03/16 08:16:55;;;;;;;;;39.00;31.00;;;;;11.27;75.41;101650.00;4975911;28;45391;-42
2022/03/16 08:19:21;;;;;;;;;39.25;32.00;;;;;11.28;75.44;101641.03;4975849;28;45343;-43
2022/03/16 08:21:47;;;;;;;;;27.50;26.25;;;;;11.27;74.81;101637.53;4975618;28;46134;-44
2022/03/16 08:24:13;;;;;;;;;33.75;27.00;;;;;11.23;75.34;101630.78;4975724;28;45335;-43
2022/03/16 08:26:38;;;;;;;;;32.75;28.25;;;;;11.28;75.20;101641.03;5031641;27;45373;-48
2022/03/16 08:29:04;;;;;;;;;35.00;28.75;;;;;11.31;75.26;101640.78;5076925;27;45419;-47
2022/03/16 08:31:29;;;;;;;;;32.75;30.75;;;;;11.28;75.08;101641.03;5077170;27;46238;-44
2022/03/16 08:33:56;;;;;;;;;34.25;28.75;;;;;11.29;75.33;101635.56;5077056;27;45472;-47
2022/03/16 08:36:21;;;;;;;;;35.50;29.75;;;;;11.33;74.95;101631.66;5077530;27;45383;-45
2022/03/16 08:38:47;;;;;;;;;36.00;31.50;;;;;11.38;74.86;101641.97;5077023;27;45374;-46
2022/03/16 08:41:12;;;;;;;;;37.00;30.00;;;;;11.42;74.87;101640.72;5076682;27;46126;-46
2022/03/16 08:43:38;;;;;;;;;41.75;33.25;;;;;11.48;74.61;101640.19;5076576;27;45506;-47
2022/03/16 08:46:04;;;;;;;;;36.75;25.75;;;;;11.51;74.83;101644.44;5076879;27;45451;-47
2022/03/16 08:48:30;;;;;;;;;38.00;27.75;;;;;11.56;74.59;101644.88;5077234;27;45601;-50
2022/03/16 08:50:56;;;;;;;;;33.00;30.25;;;;;11.57;74.48;101655.41;5075167;28;47360;-47
2022/03/16 08:53:21;;;;;;;;;37.75;28.50;;;;;11.57;74.44;101660.72;5076363;27;45389;-50
2022/03/16 08:55:47;;;;;;;;;33.00;27.00;;;;;11.57;74.18;101658.06;5076969;27;45449;-50
2022/03/16 08:58:15;;;;;;;;;32.75;26.25;;;;;11.63;74.17;101665.56;5076803;27;45472;-48
2022/03/16 09:00:41;;;;;;;;;35.00;32.25;;;;;11.67;74.02;101668.78;5076924;27;45924;-48
2022/03/16 09:03:07;;;;;;;;;35.75;28.00;;;;;11.69;73.68;101665.00;5076433;27;45410;-47
2022/03/16 09:05:34;;;;;;;;;35.25;31.00;;;;;11.78;73.51;101678.53;5076516;27;45402;-50
2022/03/16 09:07:59;;;;;;;;;43.00;34.75;;;;;11.82;73.23;101675.47;5076993;27;45488;-48
2022/03/16 09:10:26;;;;;;;;;32.50;30.25;;;;;11.87;73.40;101675.09;5076725;27;45995;-43
2022/03/16 09:12:51;;;;;;;;;29.25;26.75;;;;;11.96;73.25;101676.97;5076894;27;45352;-48
2022/03/16 09:15:17;;;;;;;;;37.75;33.75;;;;;12.01;72.82;101669.44;5076876;27;45452;-48
2022/03/16 09:17:42;;;;;;;;;38.50;34.25;;;;;12.05;72.43;101670.84;5077020;27;45445;-51
2022/03/16 09:20:07;;;;;;;;;31.00;26.00;;;;;12.10;72.10;101673.97;5076390;27;47379;-49
2022/03/16 09:22:33;;;;;;;;;30.75;26.50;;;;;12.16;72.46;101681.41;5076664;27;45445;-46
2022/03/16 09:24:58;;;;;;;;;41.75;32.50;;;;;12.19;72.01;101670.47;5076874;27;45505;-48
2022/03/16 09:27:25;;;;;;;;;43.00;29.75;;;;;12.24;72.01;101662.91;5075948;27;45499;-42
2022/03/16 09:29:53;;;;;;;;;35.50;29.50;;;;;12.27;71.22;101666.31;5075510;27;45854;-46
2022/03/16 09:32:21;;;;;;;;;35.00;33.25;;;;;12.26;71.19;101661.94;5075498;27;45513;-45
2022/03/16 09:34:47;;;;;;;;;34.50;25.50;;;;;12.29;71.19;101673.19;5076233;27;45726;-49
2022/03/16 09:37:13;;;;;;;;;40.25;31.50;;;;;12.32;71.27;101678.25;5076258;27;45455;-45
2022/03/16 09:39:39;;;;;;;;;40.75;33.50;;;;;12.32;70.76;101680.06;5074475;28;46180;-43
2022/03/16 09:42:05;;;;;;;;;36.50;29.75;;;;;12.35;71.54;101677.16;5075769;27;45497;-48
2022/03/16 09:44:31;;;;;;;;;42.25;29.00;;;;;12.34;70.94;101673.59;5075920;27;45446;-49
2022/03/16 09:46:57;;;;;;;;;35.25;32.50;;;;;12.41;70.46;101676.59;5076250;27;45534;-43
2022/03/16 09:49:23;;;;;;;;;27.00;25.50;;;;;12.15;69.88;101629.06;5075499;27;46203;-45
2022/03/16 09:51:50;;;;;;;;;39.75;29.25;;;;;12.43;70.25;101667.47;5075735;27;45472;-47
2022/03/16 09:54:16;;;;;;;;;33.33;27.00;;;;;12.48;70.44;101656.41;5074111;28;45478;-45
2022/03/16 09:56:43;;;;;;;;;36.50;31.00;;;;;12.53;70.48;101664.00;5075876;27;45483;-44
2022/03/16 09:59:10;;;;;;;;;38.67;26.00;;;;;12.55;70.47;101662.84;5075396;27;46041;-47
2022/03/16 10:01:35;;;;;;;;;32.75;28.00;;;;;12.60;70.30;101659.78;5075080;27;46044;-42
2022/03/16 10:04:03;;;;;;;;;35.00;29.50;;;;;12.68;70.77;101651.91;5075759;27;45366;-44
2022/03/16 10:06:29;;;;;;;;;38.75;32.00;;;;;12.72;70.57;101656.00;5075896;27;45996;-46
2022/03/16 10:14:24;;;;;;;;;38.50;32.50;;;;;12.88;70.23;101656.31;5075453;27;45750;-44
2022/03/16 10:19:51;;;;;;;;;31.67;27.00;;;;;12.96;69.47;101639.59;5075169;28;45837;-42
2022/03/16 10:22:30;;;;;;;;;36.67;31.33;;;;;13.02;69.73;101649.72;5076725;27;45432;-41
2022/03/16 10:25:04;;;;;;;;;39.00;31.33;;;;;13.08;69.70;101643.81;5077254;27;45247;-45
2022/03/16 10:27:30;;;;;;;;;39.33;33.67;;;;;13.14;69.26;101645.06;5077340;27;45354;-42
2022/03/16 10:29:56;;;;;;;;;37.67;33.00;;;;;13.16;69.24;101641.28;5076529;27;46956;-43
2022/03/16 10:32:23;;;;;;;;;31.67;27.00;;;;;13.19;69.04;101643.66;5076784;27;45315;-44
2022/03/16 10:34:52;;;;;;;;;34.33;31.00;;;;;13.27;68.94;101642.13;5076997;27;45379;-43
2022/03/16 10:37:22;;;;;;;;;34.33;25.67;;;;;13.34;68.57;101641.41;5076990;27;45334;-42
2022/03/16 10:39:50;;;;;;;;;37.67;30.33;;;;;13.35;68.28;101643.09;5076732;27;45445;-44
2022/03/16 10:47:56;;;;;;;;;34.00;29.00;;;;;13.46;67.41;101631.41;5076913;27;45252;-43
2022/03/16 10:50:21;;;;;;;;;37.33;29.00;;;;;13.46;67.85;101620.72;5075243;28;46094;-43
2022/03/16 10:52:48;;;;;;;;;36.00;32.33;;;;;13.55;67.44;101638.56;5076650;27;45322;-43
2022/03/16 10:55:14;;;;;;;;;30.67;30.67;;;;;13.59;67.08;101621.25;5076834;27;45335;-44
2022/03/16 10:57:43;;;;;;;;;39.67;31.33;;;;;13.70;66.69;101618.41;5076970;28;45288;-44
2022/03/16 11:00:08;;;;;;;;;30.33;25.00;;;;;13.82;66.55;101616.41;5076353;27;47081;-41
2022/03/16 11:02:36;;;;;;;;;35.33;27.67;;;;;13.88;66.21;101613.13;5076635;27;45283;-42
2022/03/16 11:05:02;;;;;;;;;38.67;29.00;;;;;13.93;65.98;101604.66;5076668;27;45345;-43
2022/03/16 11:07:27;;;;;;;;;37.67;32.67;;;;;14.01;65.28;101601.25;5076948;27;45507;-42
2022/03/16 11:09:54;;;;;;;;;28.67;28.00;;;;;14.11;65.23;101600.22;5076304;27;45272;-44
2022/03/16 11:15:05;;;;;;;;;41.00;32.00;;;;;14.40;64.82;101585.81;5076835;28;45300;-44
2022/03/16 11:17:36;;;;;;;;;33.33;27.00;;;;;14.50;65.20;101580.47;5076665;27;45438;-44
2022/03/16 11:20:04;;;;;;;;;33.67;32.00;;;;;14.58;64.70;101585.88;5076340;27;46276;-44
2022/03/16 11:22:36;;;;;;;;;36.33;33.00;;;;;14.58;64.62;101593.91;5076185;27;45237;-42